Time;durP1;ratioP1;P1;durP2;ratioP2;P2;SDS_P1;SDS_P2;PMS_P1;PMS_P2;Temp;Humidity;BMP_temperature;BMP_pressure;BME280_temperature;BME280_humidity;BME280_pressure;Samples;Min_cycle;Max_cycle;Signal;HPM_P1;HPM_P2
2021/05/25 00:00:19;;;;;;;2.78;1.33;;;;;;;20.79;43.17;101194.06;5067954;28;20037;-67
2021/05/25 00:02:48;;;;;;;3.85;1.50;;;;;;;20.74;43.28;101198.66;5069652;28;20044;-67
2021/05/25 00:05:17;;;;;;;3.65;1.77;;;;;;;20.64;43.33;101196.13;5069337;28;20037;-67
2021/05/25 00:07:44;;;;;;;3.00;1.55;;;;;;;20.57;43.41;101199.84;5068837;28;20052;-67
2021/05/25 00:10:12;;;;;;;3.15;1.80;;;;;;;20.58;43.83;101190.88;5069914;28;20087;-66
2021/05/25 00:12:41;;;;;;;4.50;2.03;;;;;;;20.55;44.01;101190.91;5069396;28;20040;-66
2021/05/25 00:15:11;;;;;;;2.90;1.90;;;;;;;20.54;44.12;101183.81;5065872;28;20036;-67
2021/05/25 00:17:38;;;;;;;2.63;1.75;;;;;;;20.49;44.27;101193.72;5067652;28;20128;-67
2021/05/25 00:20:07;;;;;;;5.50;2.47;;;;;;;20.53;44.19;101187.41;5067891;28;20036;-67
2021/05/25 00:22:34;;;;;;;2.78;2.00;;;;;;;20.45;44.37;101178.59;5069276;28;20136;-67
2021/05/25 00:25:01;;;;;;;4.97;1.60;;;;;;;20.48;44.32;101180.34;5069709;28;20046;-67
2021/05/25 00:27:28;;;;;;;4.50;1.42;;;;;;;20.43;44.37;101180.41;5069149;28;20127;-67
2021/05/25 00:29:56;;;;;;;2.88;1.63;;;;;;;20.41;44.44;101173.34;5068558;28;20152;-67
2021/05/25 00:32:23;;;;;;;4.10;1.88;;;;;;;20.45;44.10;101175.03;5069382;28;20046;-66
2021/05/25 00:34:51;;;;;;;1.90;1.60;;;;;;;20.50;44.05;101171.34;5069256;28;20075;-67
2021/05/25 00:37:18;;;;;;;4.22;1.80;;;;;;;20.54;44.11;101159.66;5069620;28;20048;-66
2021/05/25 00:39:45;;;;;;;2.42;1.70;;;;;;;20.39;44.61;101151.00;5069005;28;20036;-67
2021/05/25 00:42:12;;;;;;;4.32;1.88;;;;;;;20.31;44.93;101159.16;5069095;28;20140;-66
2021/05/25 00:44:39;;;;;;;4.13;1.92;;;;;;;20.37;44.88;101153.72;5068220;28;20071;-66
2021/05/25 00:47:08;;;;;;;3.10;1.70;;;;;;;20.46;44.84;101155.34;5067836;28;20090;-66
2021/05/25 00:49:35;;;;;;;7.13;1.40;;;;;;;20.64;44.54;101147.84;5068985;28;20566;-66
2021/05/25 00:52:02;;;;;;;3.92;1.50;;;;;;;20.67;44.14;101145.09;5069021;28;20036;-67
2021/05/25 00:54:30;;;;;;;2.58;1.75;;;;;;;20.49;44.77;101153.47;5068122;28;20036;-66
2021/05/25 00:56:58;;;;;;;4.20;1.58;;;;;;;20.41;44.82;101147.41;5060294;28;20090;-67
2021/05/25 00:59:27;;;;;;;3.35;1.60;;;;;;;20.20;45.46;101143.28;5068719;28;20083;-66
2021/05/25 01:01:55;;;;;;;4.15;1.70;;;;;;;20.22;45.51;101140.53;5068367;28;20508;-67
2021/05/25 01:04:23;;;;;;;2.95;1.60;;;;;;;20.41;45.02;101144.72;5068187;28;20561;-66
2021/05/25 01:06:50;;;;;;;5.57;1.70;;;;;;;20.39;45.03;101137.59;5064163;28;20039;-67
2021/05/25 01:09:17;;;;;;;3.25;1.70;;;;;;;20.40;44.91;101134.91;5069294;28;20044;-67
2021/05/25 01:11:45;;;;;;;4.15;1.77;;;;;;;20.73;44.23;101133.34;5069008;28;20048;-67
2021/05/25 01:14:13;;;;;;;3.28;1.70;;;;;;;20.36;44.73;101127.81;5068050;28;20398;-66
2021/05/25 01:16:40;;;;;;;2.65;1.80;;;;;;;20.34;44.82;101126.97;5068961;28;20046;-68
2021/05/25 01:19:07;;;;;;;2.75;1.67;;;;;;;20.38;44.95;101123.31;5068870;28;20041;-67
2021/05/25 01:21:39;;;;;;;3.63;1.48;;;;;;;20.46;44.65;101117.81;5067758;28;20037;-67
2021/05/25 01:24:06;;;;;;;3.40;1.60;;;;;;;20.52;44.38;101112.31;5068197;28;20746;-67
2021/05/25 01:26:33;;;;;;;3.83;1.45;;;;;;;20.51;44.42;101121.28;5070257;28;20530;-67
2021/05/25 01:29:01;;;;;;;3.45;1.40;;;;;;;20.42;44.65;101110.72;5072284;28;20056;-67
2021/05/25 01:31:28;;;;;;;4.75;1.55;;;;;;;20.50;44.11;101106.97;5072648;28;20119;-67
2021/05/25 01:33:55;;;;;;;2.58;1.38;;;;;;;20.62;44.18;101108.50;5073332;28;20098;-67
2021/05/25 01:36:22;;;;;;;4.10;1.38;;;;;;;20.58;44.32;101105.03;5059910;28;20520;-67
2021/05/25 01:38:49;;;;;;;5.25;1.45;;;;;;;20.43;44.68;101101.75;5069532;28;20049;-66
2021/05/25 01:41:17;;;;;;;2.38;1.15;;;;;;;20.38;44.62;101104.53;5072932;28;20042;-67
2021/05/25 01:43:44;;;;;;;2.92;1.33;;;;;;;20.36;44.38;101092.94;5072572;28;20040;-66
2021/05/25 01:46:11;;;;;;;3.55;1.30;;;;;;;20.37;44.07;101089.34;5069492;28;20124;-67
2021/05/25 01:48:38;;;;;;;2.20;1.20;;;;;;;20.40;44.23;101089.31;5060172;28;20037;-67
2021/05/25 01:51:05;;;;;;;3.53;1.50;;;;;;;20.31;44.25;101102.84;5063685;28;20548;-67
2021/05/25 01:53:32;;;;;;;2.05;1.30;;;;;;;20.33;43.97;101102.84;5072598;28;20036;-66
2021/05/25 01:56:01;;;;;;;3.22;1.30;;;;;;;20.47;43.60;101100.78;5072240;28;20453;-66
2021/05/25 01:58:32;;;;;;;3.33;1.23;;;;;;;20.49;43.54;101101.63;5070661;28;20047;-66
2021/05/25 02:01:00;;;;;;;4.07;1.20;;;;;;;20.37;43.84;101093.81;5071526;28;20086;-66
2021/05/25 02:03:28;;;;;;;2.05;1.25;;;;;;;20.29;44.13;101093.94;5072788;28;20102;-67
2021/05/25 02:05:56;;;;;;;3.30;1.20;;;;;;;20.18;44.41;101096.81;5071536;28;20043;-67
2021/05/25 02:08:24;;;;;;;1.73;1.08;;;;;;;20.23;44.34;101088.69;5071958;28;20056;-66
2021/05/25 02:10:53;;;;;;;2.38;1.25;;;;;;;20.27;44.30;101080.56;5071795;28;20037;-67
2021/05/25 02:13:22;;;;;;;2.05;1.20;;;;;;;20.20;44.40;101086.09;5072123;28;20119;-66
2021/05/25 02:15:53;;;;;;;2.45;1.23;;;;;;;20.24;44.24;101079.72;5072238;28;20127;-67
2021/05/25 02:18:23;;;;;;;1.05;0.77;;;;;;;20.28;43.79;101090.38;5071816;28;20045;-67
2021/05/25 02:20:53;;;;;;;1.52;1.02;;;;;;;20.22;43.63;101090.47;5071752;28;20037;-67
2021/05/25 02:23:20;;;;;;;5.80;1.02;;;;;;;20.15;43.83;101094.19;5071947;28;20037;-67
2021/05/25 02:25:48;;;;;;;3.35;1.40;;;;;;;20.10;43.29;101092.50;5071988;28;20111;-67
2021/05/25 02:28:17;;;;;;;2.25;1.08;;;;;;;20.16;42.97;101103.13;5070961;28;20047;-66
2021/05/25 02:30:46;;;;;;;4.50;1.27;;;;;;;20.18;43.03;101103.97;5071828;28;20543;-67
2021/05/25 02:33:15;;;;;;;2.30;1.25;;;;;;;20.07;43.27;101105.97;5071224;28;20102;-67
2021/05/25 02:35:43;;;;;;;5.65;1.10;;;;;;;20.13;43.29;101108.56;5070851;28;20041;-67
2021/05/25 02:38:13;;;;;;;4.78;1.27;;;;;;;20.06;43.67;101109.56;5071157;28;20113;-66
2021/05/25 02:40:42;;;;;;;1.23;0.98;;;;;;;20.08;43.80;101097.03;5071615;28;20025;-67
2021/05/25 02:43:10;;;;;;;3.20;1.00;;;;;;;20.09;43.95;101106.81;5064019;28;20037;-67
2021/05/25 02:45:37;;;;;;;5.25;1.17;;;;;;;20.12;43.64;101107.66;5070421;28;20032;-67
2021/05/25 02:48:06;;;;;;;2.30;1.40;;;;;;;20.07;43.57;101111.34;5070238;28;20057;-67
2021/05/25 02:50:34;;;;;;;2.67;1.10;;;;;;;20.01;43.63;101119.50;5071786;28;20433;-67
2021/05/25 02:53:01;;;;;;;3.30;1.20;;;;;;;20.07;43.83;101111.34;5065093;28;20084;-67
2021/05/25 02:55:30;;;;;;;3.25;1.10;;;;;;;20.10;43.81;101116.63;5060626;28;20309;-67
2021/05/25 02:57:57;;;;;;;2.20;1.10;;;;;;;20.14;43.78;101127.28;5071295;28;20045;-67
2021/05/25 03:00:26;;;;;;;2.72;1.13;;;;;;;20.07;44.09;101135.47;5070266;28;20049;-66
2021/05/25 03:02:54;;;;;;;2.35;1.23;;;;;;;20.01;44.38;101138.25;5069977;28;20552;-67
2021/05/25 03:05:23;;;;;;;1.75;1.20;;;;;;;20.03;44.54;101139.97;5071550;28;20515;-68
2021/05/25 03:07:51;;;;;;;4.60;1.35;;;;;;;20.11;45.09;101143.41;5071678;28;20040;-67
2021/05/25 03:10:21;;;;;;;4.57;1.25;;;;;;;20.14;45.18;101143.38;5069828;28;20043;-66
2021/05/25 03:12:48;;;;;;;4.00;1.13;;;;;;;20.07;45.11;101147.09;5071379;28;20211;-67
2021/05/25 03:15:17;;;;;;;3.08;1.30;;;;;;;20.08;45.70;101145.28;5059991;28;20065;-66
2021/05/25 03:17:44;;;;;;;2.80;1.02;;;;;;;20.10;45.78;101147.00;5065728;28;20075;-66
2021/05/25 03:20:13;;;;;;;1.70;1.13;;;;;;;20.13;46.03;101154.13;5061519;28;20462;-67
2021/05/25 03:22:42;;;;;;;2.45;1.40;;;;;;;20.04;46.40;101160.53;5070285;28;20040;-67
2021/05/25 03:25:11;;;;;;;5.30;1.58;;;;;;;20.17;46.47;101151.34;5070185;28;20045;-67
2021/05/25 03:27:39;;;;;;;2.42;1.42;;;;;;;20.28;46.32;101145.81;5070321;28;20052;-67
2021/05/25 03:30:10;;;;;;;3.90;1.52;;;;;;;20.32;46.34;101152.00;5070175;28;20037;-66
2021/05/25 03:32:37;;;;;;;5.97;1.88;;;;;;;20.41;46.34;101144.72;5069373;28;20033;-67
2021/05/25 03:35:07;;;;;;;3.22;1.63;;;;;;;20.23;47.12;101153.03;5070515;28;20123;-66
2021/05/25 03:37:34;;;;;;;2.00;1.50;;;;;;;20.36;47.56;101149.25;5070261;28;20045;-67
2021/05/25 03:40:03;;;;;;;3.08;1.35;;;;;;;20.61;47.89;101147.03;5069028;28;20056;-66
2021/05/25 03:42:31;;;;;;;4.05;1.38;;;;;;;20.59;47.56;101141.69;5070748;28;20043;-66
2021/05/25 03:44:59;;;;;;;4.50;1.70;;;;;;;20.62;47.78;101152.31;5069582;28;20595;-67
2021/05/25 03:47:26;;;;;;;4.88;1.17;;;;;;;20.68;48.19;101154.00;5067389;28;20068;-66
2021/05/25 03:49:53;;;;;;;3.75;1.10;;;;;;;20.79;48.10;101151.13;5069219;28;20060;-67
2021/05/25 03:52:21;;;;;;;5.43;1.77;;;;;;;21.06;47.63;101158.63;5070541;28;20124;-67
2021/05/25 03:54:51;;;;;;;3.78;1.38;;;;;;;21.24;47.44;101158.25;5070278;28;20115;-67
2021/05/25 03:58:47;;;;;;;2.92;1.40;;;;;;;21.47;47.33;101155.03;5069470;28;20090;-68
2021/05/25 04:00:12;;;;;;;;;;;;;;;21.67;47.20;101159.94;5070185;28;20048;-67
2021/05/25 04:02:39;;;;;;;11.52;1.75;;;;;;;21.87;46.96;101150.47;5069790;28;19924;-67
2021/05/25 04:05:08;;;;;;;4.30;1.40;;;;;;;22.01;46.80;101155.56;5067837;28;20114;-67
2021/05/25 04:07:35;;;;;;;2.90;1.67;;;;;;;22.11;46.83;101154.41;5065987;28;20040;-67
2021/05/25 04:10:03;;;;;;;4.70;1.42;;;;;;;22.12;46.72;101155.31;5069738;28;20132;-67
2021/05/25 04:12:31;;;;;;;3.28;1.20;;;;;;;22.15;46.73;101163.28;5069325;28;20119;-67
2021/05/25 04:14:58;;;;;;;3.35;1.75;;;;;;;22.22;46.65;101156.81;5069637;28;20132;-67
2021/05/25 04:17:26;;;;;;;4.20;1.25;;;;;;;22.38;46.50;101162.69;5067465;28;20048;-66
2021/05/25 04:19:53;;;;;;;2.55;1.10;;;;;;;22.56;46.27;101155.00;5068094;28;20048;-67
2021/05/25 04:22:20;;;;;;;2.80;1.52;;;;;;;22.65;46.09;101161.91;5069395;28;20115;-67
2021/05/25 04:24:47;;;;;;;2.08;1.33;;;;;;;22.79;45.85;101165.13;5066226;28;20047;-67
2021/05/25 04:27:14;;;;;;;1.50;1.10;;;;;;;22.93;45.46;101167.44;5068961;28;20036;-67
2021/05/25 04:29:42;;;;;;;2.38;1.15;;;;;;;23.22;45.05;101167.47;5069429;28;20089;-67
2021/05/25 04:32:09;;;;;;;5.10;1.20;;;;;;;23.44;43.87;101165.00;5069125;28;20055;-67
2021/05/25 04:34:36;;;;;;;5.22;1.48;;;;;;;23.88;43.21;101179.81;5068063;28;20079;-67
2021/05/25 04:37:03;;;;;;;3.83;1.30;;;;;;;24.21;42.99;101172.44;5069127;28;20396;-67
2021/05/25 04:39:30;;;;;;;2.97;1.30;;;;;;;24.61;41.94;101169.25;5067312;28;20047;-66
2021/05/25 04:41:57;;;;;;;3.60;1.30;;;;;;;24.92;41.33;101169.91;5068441;28;20391;-67
2021/05/25 04:44:25;;;;;;;2.30;1.20;;;;;;;25.18;40.74;101187.84;5063987;28;20052;-67
2021/05/25 04:46:53;;;;;;;1.92;1.20;;;;;;;25.54;39.78;101185.53;5065768;28;20131;-67
2021/05/25 04:49:20;;;;;;;3.13;1.17;;;;;;;25.87;39.62;101171.63;5098917;28;20047;-66
2021/05/25 04:51:47;;;;;;;3.28;0.98;;;;;;;26.19;39.30;101188.28;5062139;28;20450;-67
2021/05/25 04:54:14;;;;;;;6.53;1.33;;;;;;;26.49;38.59;101190.66;5048969;28;20120;-67
2021/05/25 04:56:41;;;;;;;5.30;1.20;;;;;;;26.77;37.98;101187.63;5051087;28;20043;-67
2021/05/25 04:59:08;;;;;;;3.10;1.30;;;;;;;27.14;36.60;101186.84;5069356;28;20496;-67
2021/05/25 05:01:35;;;;;;;3.92;1.35;;;;;;;27.47;35.68;101190.69;5060782;28;20115;-67
2021/05/25 05:04:04;;;;;;;5.70;1.10;;;;;;;27.72;34.58;101188.59;5065334;28;20044;-67
2021/05/25 05:06:31;;;;;;;6.57;1.00;;;;;;;27.96;34.30;101186.50;5069440;28;20107;-67
2021/05/25 05:08:58;;;;;;;6.22;1.10;;;;;;;28.26;33.84;101199.53;5055176;28;20101;-67
2021/05/25 05:11:25;;;;;;;3.63;0.90;;;;;;;28.57;33.37;101190.69;5049180;28;20040;-67
2021/05/25 05:13:52;;;;;;;1.38;0.70;;;;;;;28.93;32.67;101192.38;5066282;28;20036;-67
2021/05/25 05:16:19;;;;;;;3.40;0.90;;;;;;;29.23;32.01;101197.09;5067352;28;20123;-66
2021/05/25 05:18:46;;;;;;;2.67;1.05;;;;;;;29.46;31.49;101199.47;5066900;28;20128;-67
2021/05/25 05:21:14;;;;;;;1.92;0.98;;;;;;;29.65;30.94;101202.91;5056141;28;21007;-66
2021/05/25 05:23:41;;;;;;;2.78;1.00;;;;;;;29.78;30.50;101194.03;5067211;28;20115;-66
2021/05/25 05:26:08;;;;;;;4.63;1.20;;;;;;;29.84;30.56;101189.13;5068299;28;20041;-67
2021/05/25 05:28:35;;;;;;;4.50;0.82;;;;;;;30.00;30.47;101191.84;5060166;28;20037;-67
2021/05/25 05:31:05;;;;;;;3.17;1.08;;;;;;;30.14;30.17;101185.59;5066278;28;20051;-66
2021/05/25 05:33:32;;;;;;;2.85;0.95;;;;;;;30.25;29.88;101191.31;5059144;28;20047;-66
2021/05/25 05:35:59;;;;;;;5.07;0.80;;;;;;;30.33;29.83;101183.53;5053499;28;20044;-67
2021/05/25 05:38:27;;;;;;;1.60;0.90;;;;;;;30.47;29.32;101184.47;5049199;28;20119;-67
2021/05/25 05:41:02;;;;;;;6.00;1.00;;;;;;;30.71;29.02;101192.16;5048628;28;20456;-67
2021/05/25 05:43:30;;;;;;;3.70;0.88;;;;;;;30.83;29.00;101181.38;5052543;28;20051;-66
2021/05/25 05:45:59;;;;;;;1.45;0.95;;;;;;;31.07;28.31;101184.44;5048257;28;20048;-67
2021/05/25 05:48:26;;;;;;;6.53;1.55;;;;;;;31.26;28.68;101184.13;5054538;28;20033;-66
2021/05/25 05:50:53;;;;;;;2.33;0.95;;;;;;;31.26;28.63;101184.13;5048899;28;20047;-67
2021/05/25 05:53:21;;;;;;;3.85;1.02;;;;;;;31.33;29.04;101184.63;5057785;28;20120;-67
2021/05/25 05:55:50;;;;;;;2.97;1.23;;;;;;;31.23;29.38;101179.78;5064781;28;20051;-67
2021/05/25 05:58:17;;;;;;;3.33;1.27;;;;;;;31.18;29.94;101184.63;5057100;28;20500;-67
2021/05/25 06:00:45;;;;;;;2.78;1.30;;;;;;;31.12;29.98;101182.28;5052815;28;20120;-67
2021/05/25 06:03:12;;;;;;;6.72;1.52;;;;;;;31.02;29.91;101181.09;5048175;28;21198;-67
2021/05/25 06:05:40;;;;;;;2.42;1.08;;;;;;;31.02;30.18;101191.13;5066108;28;20043;-68
2021/05/25 06:08:09;;;;;;;4.22;1.10;;;;;;;31.02;30.04;101183.81;5048233;28;20110;-67
2021/05/25 06:10:39;;;;;;;5.18;1.27;;;;;;;30.89;30.22;101178.25;5047219;28;20057;-67
2021/05/25 06:13:07;;;;;;;4.57;1.40;;;;;;;30.83;30.11;101185.94;5051073;28;20424;-67
2021/05/25 06:15:35;;;;;;;7.70;1.95;;;;;;;30.81;30.32;101188.75;5051951;28;20413;-67
2021/05/25 06:18:04;;;;;;;4.25;1.10;;;;;;;30.93;30.23;101181.66;5051581;28;20102;-67
2021/05/25 06:20:30;;;;;;;3.13;1.23;;;;;;;30.95;30.31;101179.72;5052902;28;20567;-67
2021/05/25 06:22:57;;;;;;;4.78;1.10;;;;;;;30.92;30.19;101185.34;5052841;28;20045;-67
2021/05/25 06:25:25;;;;;;;2.00;1.08;;;;;;;31.03;30.31;101192.88;5052486;28;20044;-67
2021/05/25 06:27:52;;;;;;;2.40;1.00;;;;;;;31.24;29.88;101180.66;5053661;28;20531;-67
2021/05/25 06:30:21;;;;;;;3.60;1.17;;;;;;;31.35;30.03;101182.69;5051229;28;20040;-67
2021/05/25 06:32:48;;;;;;;1.50;1.02;;;;;;;31.46;30.21;101183.75;5066668;28;20050;-67
2021/05/25 06:35:16;;;;;;;3.50;1.23;;;;;;;31.59;29.48;101186.53;5071899;28;20052;-67
2021/05/25 06:37:43;;;;;;;3.42;1.10;;;;;;;31.59;29.42;101189.28;5070572;28;20061;-67
2021/05/25 06:40:12;;;;;;;5.63;1.00;;;;;;;31.49;29.45;101180.81;5071570;28;20119;-67
2021/05/25 06:42:40;;;;;;;2.88;1.02;;;;;;;31.54;29.94;101180.50;5057013;28;20040;-67
2021/05/25 06:45:08;;;;;;;2.85;1.00;;;;;;;31.49;29.81;101191.75;5054474;28;20045;-67
2021/05/25 06:47:36;;;;;;;2.55;1.02;;;;;;;31.37;30.28;101200.72;5050355;28;20492;-68
2021/05/25 06:50:04;;;;;;;5.70;1.52;;;;;;;31.51;30.04;101199.81;5049674;28;20099;-67
2021/05/25 06:52:32;;;;;;;3.83;0.90;;;;;;;31.52;30.15;101210.63;5051082;28;20044;-67
2021/05/25 06:55:00;;;;;;;3.58;1.00;;;;;;;31.39;30.08;101201.50;5066380;28;20041;-67
2021/05/25 06:57:27;;;;;;;4.47;1.00;;;;;;;31.47;29.35;101196.41;5060639;28;20044;-67
2021/05/25 06:59:55;;;;;;;2.03;0.93;;;;;;;31.52;29.20;101198.84;5050576;28;20199;-67
2021/05/25 07:02:23;;;;;;;4.03;0.80;;;;;;;31.60;29.26;101194.69;5052876;28;20069;-67
2021/05/25 07:04:51;;;;;;;3.05;0.70;;;;;;;31.65;28.81;101203.44;5051736;28;20127;-67
2021/05/25 07:07:19;;;;;;;3.13;0.90;;;;;;;31.45;28.64;101200.22;5062216;28;20115;-67
2021/05/25 07:09:46;;;;;;;2.95;0.95;;;;;;;31.66;29.09;101210.66;5071389;28;20043;-67
2021/05/25 07:12:14;;;;;;;3.60;0.82;;;;;;;32.02;28.43;101217.41;5059268;28;20059;-67
2021/05/25 07:14:42;;;;;;;2.05;0.70;;;;;;;32.18;27.97;101223.63;5052429;28;20037;-67
2021/05/25 07:17:09;;;;;;;3.63;0.77;;;;;;;32.37;27.38;101217.78;5069496;28;20052;-67
2021/05/25 07:19:36;;;;;;;3.40;1.02;;;;;;;32.59;27.38;101217.19;5069955;28;20061;-67
2021/05/25 07:22:05;;;;;;;4.72;1.10;;;;;;;32.81;26.82;101209.31;5059879;28;20124;-67
2021/05/25 07:24:32;;;;;;;0.82;0.50;;;;;;;32.93;26.90;101215.75;5050058;28;20120;-68
2021/05/25 07:26:59;;;;;;;1.83;0.68;;;;;;;33.11;26.22;101215.31;5059752;28;20127;-67
2021/05/25 07:29:26;;;;;;;2.92;0.88;;;;;;;33.29;26.30;101217.75;5059176;28;20036;-67
2021/05/25 07:31:53;;;;;;;3.83;0.80;;;;;;;33.29;26.46;101231.44;5062093;28;20539;-67
2021/05/25 07:34:20;;;;;;;2.70;1.02;;;;;;;33.34;26.51;101226.53;5050900;28;20056;-67
2021/05/25 07:36:48;;;;;;;4.55;0.85;;;;;;;33.27;26.10;101227.97;5050437;28;20404;-67
2021/05/25 07:39:17;;;;;;;4.55;0.82;;;;;;;33.51;25.98;101226.19;5050788;28;20128;-67
2021/05/25 07:41:44;;;;;;;3.60;0.90;;;;;;;33.50;26.55;101230.78;5067195;28;20037;-67
2021/05/25 07:44:11;;;;;;;3.83;0.80;;;;;;;33.57;26.69;101240.31;5062314;28;20048;-67
2021/05/25 07:46:38;;;;;;;1.23;0.88;;;;;;;33.37;26.71;101235.41;5051020;28;20037;-67
2021/05/25 07:49:06;;;;;;;3.60;1.10;;;;;;;33.06;27.23;101241.28;5066281;28;20140;-67
2021/05/25 07:51:33;;;;;;;1.95;1.00;;;;;;;33.00;27.70;101236.25;5068289;28;20148;-67
2021/05/25 07:54:00;;;;;;;2.85;1.25;;;;;;;33.08;27.98;101242.91;5070591;28;20132;-67
2021/05/25 07:56:28;;;;;;;4.95;1.60;;;;;;;33.22;27.65;101244.69;5062959;28;20518;-67
2021/05/25 07:58:55;;;;;;;3.88;1.00;;;;;;;33.08;27.09;101245.63;5060284;28;20086;-67
2021/05/25 08:01:23;;;;;;;2.53;0.95;;;;;;;33.34;26.96;101237.50;5049525;28;20033;-68
2021/05/25 08:03:50;;;;;;;1.80;1.00;;;;;;;33.63;26.38;101249.94;5050496;28;20091;-67
2021/05/25 08:06:17;;;;;;;4.28;1.08;;;;;;;33.55;26.60;101246.88;5063571;28;20445;-67
2021/05/25 08:08:44;;;;;;;2.13;1.00;;;;;;;33.73;26.32;101240.09;5050499;28;20090;-67
2021/05/25 08:11:13;;;;;;;2.10;0.90;;;;;;;33.67;26.45;101242.38;5052054;28;20044;-67
2021/05/25 08:13:44;;;;;;;6.47;1.25;;;;;;;33.78;26.72;101251.59;5050212;28;20048;-67
2021/05/25 08:16:14;;;;;;;3.78;1.10;;;;;;;33.82;26.68;101236.66;5065835;28;20076;-67
2021/05/25 08:18:49;;;;;;;4.63;0.90;;;;;;;34.03;26.48;101231.44;5066295;28;20041;-68
2021/05/25 08:21:16;;;;;;;2.83;1.00;;;;;;;34.14;26.44;101227.88;5062846;28;20047;-67
2021/05/25 08:23:43;;;;;;;1.55;0.93;;;;;;;34.24;26.00;101226.25;5064134;28;20125;-67
2021/05/25 08:26:10;;;;;;;3.22;0.98;;;;;;;34.03;26.39;101225.09;5050145;28;20037;-67
2021/05/25 08:28:37;;;;;;;1.88;1.10;;;;;;;34.08;26.40;101239.31;5068769;28;20492;-67
2021/05/25 08:31:06;;;;;;;2.08;0.98;;;;;;;34.14;26.31;101233.38;5047461;28;20064;-67
2021/05/25 08:33:33;;;;;;;3.80;1.10;;;;;;;34.05;26.80;101223.13;5045655;28;21715;-67
2021/05/25 08:36:00;;;;;;;1.70;0.88;;;;;;;34.29;26.30;101232.25;5043063;28;20175;-67
2021/05/25 08:38:28;;;;;;;3.22;1.33;;;;;;;34.62;26.01;101232.41;5064164;28;20029;-67
2021/05/25 08:40:56;;;;;;;3.40;0.90;;;;;;;34.77;25.79;101234.00;5048720;28;20045;-67
2021/05/25 08:43:23;;;;;;;6.88;1.75;;;;;;;34.73;25.56;101228.84;5050992;28;20060;-67
2021/05/25 08:45:51;;;;;;;3.70;1.15;;;;;;;34.95;25.16;101219.81;5064994;28;20039;-67
2021/05/25 08:48:19;;;;;;;2.15;0.88;;;;;;;34.99;25.05;101229.53;5064587;28;20633;-67
2021/05/25 08:50:47;;;;;;;1.98;0.90;;;;;;;34.91;24.43;101232.91;5051276;28;20045;-68
2021/05/25 08:53:15;;;;;;;5.18;1.00;;;;;;;34.57;24.61;101223.66;5049395;28;20406;-67
2021/05/25 08:55:46;;;;;;;2.35;0.90;;;;;;;34.14;24.88;101215.06;5055826;28;20136;-67
2021/05/25 08:58:13;;;;;;;1.95;1.02;;;;;;;34.29;24.56;101215.78;5049223;28;20135;-67
2021/05/25 09:00:40;;;;;;;3.75;0.88;;;;;;;34.44;24.38;101213.75;5046086;28;20045;-67
2021/05/25 09:03:07;;;;;;;3.38;0.88;;;;;;;34.10;24.62;101205.31;5054612;28;20465;-66
2021/05/25 09:05:37;;;;;;;2.95;0.93;;;;;;;33.71;24.60;101209.19;5052154;28;20381;-67
2021/05/25 09:08:06;;;;;;;3.50;0.90;;;;;;;33.77;24.94;101216.94;5047509;28;20041;-67
2021/05/25 09:10:38;;;;;;;2.80;0.98;;;;;;;34.35;24.38;101212.56;5051445;28;20046;-67
2021/05/25 09:13:11;;;;;;;3.17;0.95;;;;;;;34.70;24.10;101209.84;5062132;28;20044;-67
2021/05/25 09:15:41;;;;;;;;;;;;;;;34.60;23.86;101209.69;5058324;28;20183;-67
2021/05/25 09:18:09;;;;;;;1.73;0.80;;;;;;;34.46;24.26;101209.91;5056309;28;19922;-68
2021/05/25 09:20:53;;;;;;;1.85;0.98;;;;;;;34.82;23.63;101199.81;5055610;28;20041;-69
2021/05/25 09:23:25;;;;;;;2.20;0.80;;;;;;;34.85;23.68;101203.19;5053741;28;20044;-68
2021/05/25 09:26:04;;;;;;;5.53;1.10;;;;;;;35.14;23.28;101192.63;5061400;28;20045;-67
2021/05/25 09:28:34;;;;;;;2.60;1.00;;;;;;;35.45;22.75;101196.53;5042297;28;20053;-68
2021/05/25 09:31:03;;;;;;;2.58;1.13;;;;;;;35.53;22.88;101200.41;5032289;28;20037;-67
2021/05/25 09:33:32;;;;;;;1.38;0.98;;;;;;;35.66;22.78;101194.75;5028752;28;20516;-68
2021/05/25 09:36:11;;;;;;;4.97;0.98;;;;;;;35.52;22.70;101193.16;5028014;28;20041;-67
2021/05/25 09:38:39;;;;;;;1.20;0.80;;;;;;;35.05;22.87;101190.63;5030875;28;20652;-69
2021/05/25 09:41:06;;;;;;;3.05;1.00;;;;;;;35.11;22.85;101195.63;5029194;28;20055;-68
2021/05/25 09:43:35;;;;;;;3.10;1.20;;;;;;;35.36;22.55;101195.44;5027525;28;20049;-67
2021/05/25 09:46:10;;;;;;;3.65;0.98;;;;;;;35.20;22.51;101192.13;5033138;28;20123;-68
2021/05/25 09:48:53;;;;;;;4.05;1.05;;;;;;;35.27;22.08;101192.53;5036186;28;20048;-68
2021/05/25 09:51:24;;;;;;;3.70;0.85;;;;;;;35.10;22.53;101192.00;5028504;28;20551;-67
2021/05/25 09:53:53;;;;;;;2.53;0.90;;;;;;;34.94;22.43;101183.25;5034398;28;20055;-67
2021/05/25 09:56:25;;;;;;;5.97;0.80;;;;;;;34.77;22.90;101179.09;5032634;28;20045;-66
2021/05/25 09:58:54;;;;;;;0.90;0.80;;;;;;;34.74;22.76;101176.59;5014016;28;20040;-67
2021/05/25 10:01:32;;;;;;;16.98;2.10;;;;;;;34.65;23.05;101185.53;5033721;28;20143;-67
2021/05/25 10:04:10;;;;;;;3.33;0.70;;;;;;;34.67;22.89;101178.03;5031938;28;20634;-67
2021/05/25 10:06:42;;;;;;;1.77;1.05;;;;;;;34.25;22.93;101176.78;5037433;28;20044;-67
2021/05/25 10:09:10;;;;;;;4.97;0.90;;;;;;;34.05;23.04;101171.03;5033940;28;20040;-67
2021/05/25 10:11:39;;;;;;;3.08;1.10;;;;;;;34.05;22.87;101166.44;5035175;28;20037;-67
2021/05/25 10:14:09;;;;;;;2.92;1.00;;;;;;;34.03;23.16;101164.78;5035126;28;20136;-66
2021/05/25 10:16:38;;;;;;;1.50;0.82;;;;;;;33.91;22.98;101156.50;5032872;28;20036;-66
2021/05/25 10:19:25;;;;;;;1.60;0.90;;;;;;;33.71;23.31;101159.88;5035214;28;20041;-66
2021/05/25 10:21:54;;;;;;;2.15;0.90;;;;;;;33.84;23.52;101160.69;5035914;28;20107;-67
2021/05/25 10:24:22;;;;;;;2.63;0.80;;;;;;;33.90;23.53;101156.63;5019172;28;20622;-66
2021/05/25 10:26:51;;;;;;;3.53;1.25;;;;;;;34.15;23.13;101159.22;5039863;28;20518;-67
2021/05/25 10:29:18;;;;;;;2.70;1.00;;;;;;;33.98;23.22;101162.41;5052920;28;20041;-66
2021/05/25 10:31:48;;;;;;;3.42;1.10;;;;;;;33.78;23.14;101155.69;5056591;28;20047;-66
2021/05/25 10:34:18;;;;;;;1.33;0.90;;;;;;;33.93;23.44;101157.28;5070151;28;20496;-66
2021/05/25 10:36:46;;;;;;;3.13;0.90;;;;;;;33.84;23.66;101148.88;5053395;28;20037;-66
2021/05/25 10:39:36;;;;;;;2.85;1.10;;;;;;;33.99;22.89;101144.97;5055823;28;20526;-66
2021/05/25 10:42:30;;;;;;;2.75;1.05;;;;;;;33.76;22.92;101140.34;5058623;28;20048;-66
2021/05/25 10:44:59;;;;;;;2.47;1.00;;;;;;;33.65;23.05;101137.50;5050841;28;20484;-66
2021/05/25 10:47:32;;;;;;;2.15;1.13;;;;;;;33.62;23.22;101144.09;5051973;28;20037;-66
2021/05/25 10:50:12;;;;;;;1.35;0.90;;;;;;;33.86;23.15;101135.94;5055277;28;20057;-66
2021/05/25 10:52:40;;;;;;;1.98;0.98;;;;;;;34.23;22.71;101143.09;5051298;28;20457;-67
2021/05/25 10:55:25;;;;;;;2.90;1.17;;;;;;;33.90;22.75;101137.44;5050243;28;20072;-66
2021/05/25 10:57:52;;;;;;;1.55;0.80;;;;;;;34.02;22.98;101131.00;5055046;28;20459;-66
2021/05/25 11:00:28;;;;;;;2.97;1.20;;;;;;;34.39;22.91;101134.56;5051726;28;20539;-66
2021/05/25 11:02:58;;;;;;;1.92;0.80;;;;;;;34.34;23.41;101134.91;5049050;28;20056;-67
2021/05/25 11:05:54;;;;;;;4.70;1.15;;;;;;;34.58;23.37;101137.63;5048783;28;20055;-66
2021/05/25 11:08:24;;;;;;;3.03;1.00;;;;;;;34.73;23.44;101133.66;5052986;28;20519;-66
2021/05/25 11:10:59;;;;;;;3.40;1.15;;;;;;;34.63;23.58;101135.38;5060752;28;20504;-67
2021/05/25 11:13:28;;;;;;;2.55;1.00;;;;;;;34.85;23.45;101134.59;5058969;28;20029;-68
2021/05/25 11:16:06;;;;;;;2.72;1.02;;;;;;;34.70;23.72;101128.41;5052633;28;20049;-68
2021/05/25 11:18:35;;;;;;;3.90;1.00;;;;;;;34.52;24.35;101124.38;5067095;28;20072;-66
2021/05/25 11:21:22;;;;;;;2.90;1.00;;;;;;;34.39;24.68;101129.97;5061816;28;20049;-67
2021/05/25 11:23:51;;;;;;;3.78;1.10;;;;;;;34.42;25.26;101122.47;5050765;28;20048;-67
2021/05/25 11:26:57;;;;;;;4.20;1.20;;;;;;;34.28;26.08;101134.53;5062214;28;20057;-67
2021/05/25 11:29:26;;;;;;;3.70;1.30;;;;;;;33.88;26.89;101129.31;5052386;28;20045;-67
2021/05/25 11:31:54;;;;;;;6.20;1.30;;;;;;;34.15;26.84;101123.59;5051486;28;20039;-67
2021/05/25 11:34:24;;;;;;;13.75;1.30;;;;;;;34.05;26.95;101135.41;5051485;28;20147;-67